Time;durP1;ratioP1;P1;durP2;ratioP2;P2;SDS_P1;SDS_P2;PMS_P1;PMS_P2;Temp;Humidity;BMP_temperature;BMP_pressure;BME280_temperature;BME280_humidity;BME280_pressure;Samples;Min_cycle;Max_cycle;Signal;HPM_P1;HPM_P2
2023/04/21 00:01:44;;;;;;;43.75;39.15;;;;;;;5.87;100.00;101404.22;5113653;28;20100;-56
2023/04/21 00:04:12;;;;;;;45.78;40.95;;;;;;;5.88;100.00;101402.56;5113655;28;20042;-56
2023/04/21 00:06:40;;;;;;;42.97;38.33;;;;;;;5.87;100.00;101395.66;5112494;28;20031;-56
2023/04/21 00:09:06;;;;;;;44.58;39.88;;;;;;;5.85;100.00;101393.03;5113157;28;20020;-56
2023/04/21 00:11:31;;;;;;;44.63;39.88;;;;;;;5.86;100.00;101386.22;5113482;28;20031;-56
2023/04/21 00:13:56;;;;;;;45.22;40.25;;;;;;;5.84;100.00;101388.69;5113061;28;20467;-56
2023/04/21 00:16:22;;;;;;;46.08;41.10;;;;;;;5.84;100.00;101380.16;5113005;28;20028;-56
2023/04/21 00:18:47;;;;;;;45.63;40.67;;;;;;;5.85;100.00;101381.88;5112900;28;20019;-56
2023/04/21 00:21:12;;;;;;;47.90;42.70;;;;;;;5.86;100.00;101379.44;5112804;28;20028;-56
2023/04/21 00:23:37;;;;;;;47.58;42.00;;;;;;;5.86;100.00;101374.34;5112246;28;20012;-56
2023/04/21 00:26:03;;;;;;;47.42;42.28;;;;;;;5.87;100.00;101375.19;5113514;28;20039;-56
2023/04/21 00:28:28;;;;;;;46.03;41.00;;;;;;;5.85;100.00;101370.00;5112766;28;20016;-56
2023/04/21 00:30:54;;;;;;;46.92;41.40;;;;;;;5.85;100.00;101359.78;5113148;28;20489;-56
2023/04/21 00:33:19;;;;;;;46.20;40.95;;;;;;;5.83;100.00;101353.69;5113029;28;20024;-56
2023/04/21 00:35:45;;;;;;;49.13;42.55;;;;;;;5.82;100.00;101362.13;5112715;28;20015;-56
2023/04/21 00:38:10;;;;;;;52.15;43.67;;;;;;;5.85;100.00;101366.53;5112234;28;20031;-56
2023/04/21 00:40:35;;;;;;;52.67;42.90;;;;;;;5.85;100.00;101362.34;5112711;28;20032;-56
2023/04/21 00:43:04;;;;;;;50.33;42.20;;;;;;;5.84;100.00;101360.56;5112634;28;20020;-56
2023/04/21 00:45:29;;;;;;;51.15;41.67;;;;;;;5.84;100.00;101352.88;5112741;28;20020;-56
2023/04/21 00:47:54;;;;;;;55.88;45.58;;;;;;;5.84;100.00;101359.69;5113393;28;20027;-56
2023/04/21 00:50:20;;;;;;;50.95;43.55;;;;;;;5.82;100.00;101359.56;5112369;28;20024;-56
2023/04/21 00:52:45;;;;;;;51.75;43.83;;;;;;;5.82;100.00;101364.69;5112504;28;20024;-56
2023/04/21 00:55:11;;;;;;;51.38;43.38;;;;;;;5.82;100.00;101354.47;5113332;28;20020;-56
2023/04/21 00:57:37;;;;;;;53.58;43.72;;;;;;;5.82;100.00;101351.91;5112317;28;20022;-56
2023/04/21 01:00:04;;;;;;;49.75;42.53;;;;;;;5.81;100.00;101355.28;5112897;28;20020;-56
2023/04/21 01:02:30;;;;;;;52.35;43.08;;;;;;;5.82;100.00;101351.03;5112134;28;20047;-56
2023/04/21 01:04:56;;;;;;;53.97;43.70;;;;;;;5.80;100.00;101348.41;5112976;28;20073;-56
2023/04/21 01:07:24;;;;;;;52.70;43.50;;;;;;;5.85;100.00;101357.22;5112284;28;20037;-56
2023/04/21 01:09:49;;;;;;;55.40;45.60;;;;;;;5.82;100.00;101354.47;5112296;28;20455;-56
2023/04/21 01:12:14;;;;;;;53.42;43.75;;;;;;;5.81;100.00;101351.81;5112927;28;20027;-56
2023/04/21 01:14:40;;;;;;;57.72;45.28;;;;;;;5.81;100.00;101350.16;5112956;28;20034;-55
2023/04/21 01:17:06;;;;;;;54.58;44.20;;;;;;;5.80;100.00;101343.28;5112415;28;20391;-55
2023/04/21 01:19:41;;;;;;;57.65;45.83;;;;;;;5.83;100.00;101346.00;5112462;28;20027;-56
2023/04/21 01:22:11;;;;;;;57.08;45.13;;;;;;;5.82;100.00;101335.69;5104471;28;20020;-56
2023/04/21 01:24:39;;;;;;;56.63;44.80;;;;;;;5.77;100.00;101333.75;5091486;28;20429;-56
2023/04/21 01:27:13;;;;;;;57.20;45.72;;;;;;;5.77;100.00;101332.84;5092366;28;20034;-55
2023/04/21 01:29:41;;;;;;;61.40;46.25;;;;;;;5.76;100.00;101326.88;5092414;28;20027;-56
2023/04/21 01:32:07;;;;;;;;;;;;;;;5.87;100.00;101340.25;5095731;28;20028;-56
2023/04/21 01:34:33;;;;;;;64.73;47.40;;;;;;;5.80;100.00;101324.47;5095565;28;19916;-54
2023/04/21 01:36:58;;;;;;;58.97;46.10;;;;;;;5.77;100.00;101327.75;5095829;28;20016;-56
2023/04/21 01:39:24;;;;;;;64.32;48.65;;;;;;;5.75;100.00;101331.91;5095174;28;20038;-54
2023/04/21 01:41:49;;;;;;;63.08;48.42;;;;;;;5.74;100.00;101333.56;5095838;28;20471;-56
2023/04/21 01:44:14;;;;;;;66.60;49.80;;;;;;;5.74;100.00;101325.03;5096149;28;20059;-55
2023/04/21 01:46:40;;;;;;;65.57;48.70;;;;;;;5.72;100.00;101321.47;5095076;28;20031;-56
2023/04/21 01:49:05;;;;;;;65.10;49.40;;;;;;;5.72;100.00;101313.81;5095542;28;20463;-56
2023/04/21 01:51:30;;;;;;;67.85;49.67;;;;;;;5.70;100.00;101310.31;5095596;28;20028;-56
2023/04/21 01:53:55;;;;;;;68.38;48.92;;;;;;;5.69;100.00;101311.09;5094349;28;20028;-56
2023/04/21 01:56:21;;;;;;;63.30;47.95;;;;;;;5.66;100.00;101304.13;5095438;28;20028;-54
2023/04/21 01:58:46;;;;;;;66.28;48.90;;;;;;;5.64;100.00;101294.59;5095128;28;20020;-56
2023/04/21 02:01:11;;;;;;;68.38;49.97;;;;;;;5.64;100.00;101294.59;5095696;28;20035;-55
2023/04/21 02:03:36;;;;;;;71.63;50.70;;;;;;;5.64;100.00;101299.72;5094865;28;20123;-55
2023/04/21 02:06:02;;;;;;;70.05;50.10;;;;;;;5.63;100.00;101292.84;5095064;28;20101;-55
2023/04/21 02:08:28;;;;;;;68.70;50.67;;;;;;;5.63;100.00;101283.50;5094909;28;20035;-56
2023/04/21 02:10:53;;;;;;;65.72;49.38;;;;;;;5.62;100.00;101276.63;5095606;28;20016;-56
2023/04/21 02:13:18;;;;;;;68.15;50.30;;;;;;;5.63;100.00;101277.50;5094591;28;20031;-56
2023/04/21 02:15:44;;;;;;;73.03;51.92;;;;;;;5.63;100.00;101267.25;5095260;28;20483;-56
2023/04/21 02:18:09;;;;;;;69.28;50.45;;;;;;;5.61;100.00;101267.19;5095201;28;20520;-56
2023/04/21 02:20:34;;;;;;;68.38;49.53;;;;;;;5.60;100.00;101271.44;5094680;28;20400;-56
2023/04/21 02:23:00;;;;;;;69.60;50.45;;;;;;;5.57;100.00;101273.78;5094597;28;20031;-56
2023/04/21 02:25:25;;;;;;;74.10;52.70;;;;;;;5.59;100.00;101269.66;5094232;28;20042;-54
2023/04/21 02:27:50;;;;;;;78.47;53.28;;;;;;;5.61;100.00;101260.38;5094361;28;20024;-56
2023/04/21 02:30:15;;;;;;;76.68;52.20;;;;;;;5.55;100.00;101254.94;5094693;28;20421;-55
2023/04/21 02:32:41;;;;;;;81.47;54.30;;;;;;;5.58;100.00;101265.34;5095381;28;20027;-56
2023/04/21 02:35:07;;;;;;;84.47;55.13;;;;;;;5.59;100.00;101264.53;5094355;28;20107;-56
2023/04/21 02:37:33;;;;;;;82.70;56.65;;;;;;;5.60;100.00;101263.75;5094223;28;20027;-56
2023/04/21 02:39:58;;;;;;;89.57;57.45;;;;;;;5.62;100.00;101256.16;5095137;28;20059;-56
2023/04/21 02:42:24;;;;;;;92.72;59.47;;;;;;;5.66;100.00;101252.97;5093070;28;20059;-55
2023/04/21 02:44:49;;;;;;;93.18;59.47;;;;;;;5.65;100.00;101247.78;5094457;28;20016;-55
2023/04/21 02:47:15;;;;;;;94.70;61.70;;;;;;;5.66;100.00;101252.97;5094693;28;20027;-55
2023/04/21 02:49:41;;;;;;;96.45;59.67;;;;;;;5.66;100.00;101250.41;5093902;28;20388;-56
2023/04/21 02:52:06;;;;;;;95.38;61.05;;;;;;;5.68;100.00;101245.38;5093996;28;20024;-56
2023/04/21 02:54:32;;;;;;;96.88;60.13;;;;;;;5.69;100.00;101252.28;5093673;28;20098;-56
2023/04/21 02:56:57;;;;;;;94.53;60.95;;;;;;;5.67;100.00;101254.75;5094159;28;20103;-55
2023/04/21 02:59:22;;;;;;;93.88;63.08;;;;;;;5.66;100.00;101249.56;5094156;28;20016;-54
2023/04/21 03:01:48;;;;;;;94.43;59.38;;;;;;;5.64;100.00;101246.00;5094270;28;20081;-56
2023/04/21 03:04:13;;;;;;;97.80;61.88;;;;;;;5.65;100.00;101235.00;5093912;28;20111;-55
2023/04/21 03:06:38;;;;;;;100.05;62.00;;;;;;;5.65;100.00;101232.44;5093923;28;20032;-54
2023/04/21 03:09:04;;;;;;;102.78;65.50;;;;;;;5.71;100.00;101240.47;5093819;28;20099;-55
2023/04/21 03:11:30;;;;;;;114.57;66.82;;;;;;;5.67;100.00;101241.06;5094244;28;20479;-56
2023/04/21 03:13:55;;;;;;;112.50;67.00;;;;;;;5.66;100.00;101242.75;5094165;28;20026;-56
2023/04/21 03:16:20;;;;;;;114.97;67.90;;;;;;;5.67;100.00;101241.06;5093296;28;20028;-56
2023/04/21 03:18:45;;;;;;;116.70;68.50;;;;;;;5.65;100.00;101240.13;5093944;28;20111;-56
2023/04/21 03:21:11;;;;;;;115.38;70.30;;;;;;;5.67;100.00;101238.50;5094267;28;20020;-56
2023/04/21 03:23:36;;;;;;;112.97;69.25;;;;;;;5.66;100.00;101236.78;5092937;28;20024;-56
2023/04/21 03:26:07;;;;;;;108.45;66.55;;;;;;;5.60;100.00;101248.41;5093861;28;20040;-56
2023/04/21 03:28:33;;;;;;;114.82;67.25;;;;;;;5.50;100.00;101235.91;5093718;28;20058;-56
2023/04/21 03:30:58;;;;;;;114.82;68.35;;;;;;;5.52;100.00;101239.41;5093420;28;20100;-55
2023/04/21 03:33:24;;;;;;;114.80;69.80;;;;;;;5.51;100.00;101232.53;5093509;28;20020;-56
2023/04/21 03:35:49;;;;;;;113.60;68.88;;;;;;;5.40;100.00;101228.50;5094114;28;20032;-56
2023/04/21 03:38:14;;;;;;;112.57;67.22;;;;;;;5.41;100.00;101238.81;5093287;28;20016;-56
2023/04/21 03:40:40;;;;;;;120.25;70.82;;;;;;;5.39;100.00;101236.97;5093515;28;20051;-56
2023/04/21 03:43:05;;;;;;;112.05;68.55;;;;;;;5.32;100.00;101234.84;5093762;28;20027;-56
2023/04/21 03:45:31;;;;;;;117.95;69.78;;;;;;;5.28;100.00;101227.00;5092691;28;20035;-56
2023/04/21 03:47:56;;;;;;;122.93;72.95;;;;;;;5.33;100.00;101232.38;5093331;28;20390;-56
2023/04/21 03:50:22;;;;;;;127.70;72.70;;;;;;;5.33;100.00;101234.06;5093538;28;20105;-55
2023/04/21 03:52:47;;;;;;;133.13;75.78;;;;;;;5.37;100.00;101238.53;5092588;28;20024;-56
2023/04/21 03:55:13;;;;;;;138.20;75.82;;;;;;;5.36;100.00;101230.00;5093288;28;20028;-56
2023/04/21 03:57:40;;;;;;;135.15;75.60;;;;;;;5.36;100.00;101234.22;5093271;28;20020;-56
2023/04/21 04:00:06;;;;;;;136.07;77.77;;;;;;;5.36;100.00;101231.66;5093309;28;20456;-56
2023/04/21 04:02:31;;;;;;;142.30;79.72;;;;;;;5.34;100.00;101229.03;5092565;28;20051;-54
2023/04/21 04:04:56;;;;;;;144.95;78.80;;;;;;;5.35;100.00;101229.94;5093309;28;20129;-56
2023/04/21 04:07:22;;;;;;;148.80;79.50;;;;;;;5.36;100.00;101226.56;5092146;28;20024;-54
2023/04/21 04:09:47;;;;;;;148.00;80.72;;;;;;;5.35;100.00;101229.94;5092629;28;20371;-55
2023/04/21 04:12:12;;;;;;;155.88;83.63;;;;;;;5.39;100.00;101236.97;5093236;28;20073;-55
2023/04/21 04:14:38;;;;;;;152.38;82.50;;;;;;;5.39;100.00;101232.72;5092588;28;20116;-55
2023/04/21 04:17:03;;;;;;;157.00;83.85;;;;;;;5.41;100.00;101235.38;5092830;28;20062;-55
2023/04/21 04:19:33;;;;;;;161.10;85.30;;;;;;;5.45;100.00;101227.09;5092558;28;20073;-56
2023/04/21 04:21:59;;;;;;;153.93;82.40;;;;;;;5.44;100.00;101233.00;5092490;28;20529;-55
2023/04/21 04:24:25;;;;;;;159.60;84.35;;;;;;;5.45;100.00;101237.31;5092625;28;20024;-56
2023/04/21 04:26:52;;;;;;;153.68;84.35;;;;;;;5.48;100.00;101226.38;5092386;28;20086;-56
2023/04/21 04:29:18;;;;;;;155.80;84.17;;;;;;;5.48;100.00;101232.38;5092573;28;20043;-56
2023/04/21 04:31:44;;;;;;;152.07;83.88;;;;;;;5.50;100.00;101242.69;5092964;28;20028;-55
2023/04/21 04:34:10;;;;;;;154.88;84.40;;;;;;;5.55;100.00;101229.38;5092583;28;20043;-56
2023/04/21 04:36:35;;;;;;;158.40;85.75;;;;;;;5.52;100.00;101234.31;5092194;28;20028;-55
2023/04/21 04:39:00;;;;;;;158.43;84.30;;;;;;;5.55;100.00;101234.50;5092569;28;20482;-55
2023/04/21 04:41:29;;;;;;;161.80;83.18;;;;;;;5.55;100.00;101231.03;5091975;28;20107;-56
2023/04/21 04:43:56;;;;;;;152.55;82.95;;;;;;;5.55;100.00;101237.06;5092525;28;20126;-55
2023/04/21 04:46:23;;;;;;;156.70;86.32;;;;;;;5.57;100.00;101238.00;5092589;28;20036;-55
2023/04/21 04:48:48;;;;;;;153.05;83.95;;;;;;;5.56;100.00;101233.66;5092514;28;20043;-54
2023/04/21 04:51:14;;;;;;;162.75;84.90;;;;;;;5.59;100.00;101235.53;5092128;28;20042;-56
2023/04/21 04:53:39;;;;;;;153.73;84.07;;;;;;;5.57;100.00;101232.88;5092480;28;20028;-55
2023/04/21 04:56:05;;;;;;;150.68;81.85;;;;;;;5.56;100.00;101236.22;5092158;28;20031;-56
2023/04/21 04:58:30;;;;;;;155.52;82.78;;;;;;;5.54;100.00;101237.84;5092096;28;20480;-55
2023/04/21 05:00:55;;;;;;;150.25;82.63;;;;;;;5.48;100.00;101246.84;5092868;28;20028;-55
2023/04/21 05:03:20;;;;;;;139.93;79.70;;;;;;;5.41;100.00;101236.25;5091684;28;20072;-55
2023/04/21 05:05:46;;;;;;;150.32;81.13;;;;;;;5.44;100.00;101241.53;5093956;28;20032;-56
2023/04/21 05:08:11;;;;;;;150.40;82.03;;;;;;;5.45;100.00;101252.66;5096266;28;20039;-55
2023/04/21 05:10:36;;;;;;;159.85;86.47;;;;;;;5.56;100.00;101245.59;5095877;28;20032;-55
2023/04/21 05:13:02;;;;;;;164.75;86.90;;;;;;;5.53;100.00;101241.19;5096314;28;20102;-54
2023/04/21 05:15:27;;;;;;;171.02;89.20;;;;;;;5.54;100.00;101253.19;5096590;28;20027;-55
2023/04/21 05:17:52;;;;;;;156.85;88.50;;;;;;;5.59;100.00;101244.09;5095909;28;20036;-55
2023/04/21 05:20:18;;;;;;;165.05;87.47;;;;;;;5.60;100.00;101242.41;5096414;28;20099;-55
2023/04/21 05:22:43;;;;;;;158.80;83.85;;;;;;;5.57;100.00;101248.22;5095334;28;20126;-54
2023/04/21 05:25:11;;;;;;;154.88;84.28;;;;;;;5.55;100.00;101252.38;5096014;28;20063;-55
2023/04/21 05:27:36;;;;;;;146.70;81.50;;;;;;;5.55;100.00;101262.63;5095984;28;20459;-56
2023/04/21 05:30:01;;;;;;;146.10;79.90;;;;;;;5.53;100.00;101255.66;5095575;28;20035;-55
2023/04/21 05:32:28;;;;;;;146.82;82.60;;;;;;;5.50;100.00;101258.91;5095930;28;20024;-56
2023/04/21 05:34:53;;;;;;;158.20;83.90;;;;;;;5.47;100.00;101266.41;5096369;28;20153;-55
2023/04/21 05:37:18;;;;;;;159.27;84.68;;;;;;;5.52;100.00;101271.78;5095147;28;20103;-55
2023/04/21 05:39:43;;;;;;;171.00;88.55;;;;;;;5.56;100.00;101266.91;5095980;28;20028;-56
2023/04/21 05:42:10;;;;;;;174.30;90.03;;;;;;;5.61;100.00;101262.94;5096136;28;20024;-55
2023/04/21 05:44:35;;;;;;;176.88;92.05;;;;;;;5.70;100.00;101274.50;5095191;28;20688;-55
2023/04/21 05:47:01;;;;;;;185.90;93.82;;;;;;;5.76;100.00;101259.50;5095880;28;20114;-55
2023/04/21 05:49:26;;;;;;;175.93;94.78;;;;;;;5.80;100.00;101265.66;5095554;28;20024;-55
2023/04/21 05:51:51;;;;;;;176.70;92.82;;;;;;;5.84;100.00;101267.59;5095061;28;20028;-55
2023/04/21 05:54:17;;;;;;;172.88;91.35;;;;;;;5.83;100.00;101271.81;5095077;28;20028;-55
2023/04/21 05:56:42;;;;;;;178.05;93.80;;;;;;;5.86;100.00;101271.09;5095784;28;20467;-55
2023/04/21 05:59:07;;;;;;;171.32;92.32;;;;;;;5.91;100.00;101272.25;5095150;28;20107;-55
2023/04/21 06:01:32;;;;;;;176.65;92.65;;;;;;;5.94;100.00;101275.84;5095181;28;20100;-55
2023/04/21 06:03:58;;;;;;;173.13;90.50;;;;;;;6.01;100.00;101263.44;5095750;28;20106;-56
2023/04/21 06:06:25;;;;;;;185.23;95.90;;;;;;;6.08;100.00;101270.63;5094368;28;20024;-55
2023/04/21 06:08:51;;;;;;;182.82;93.53;;;;;;;6.13;100.00;101271.78;5094910;28;20170;-56
2023/04/21 06:11:16;;;;;;;174.68;92.65;;;;;;;6.15;100.00;101264.19;5095233;28;20105;-56
2023/04/21 06:13:41;;;;;;;162.98;87.45;;;;;;;6.14;100.00;101258.19;5094867;28;20487;-55
2023/04/21 06:16:06;;;;;;;164.50;89.90;;;;;;;6.20;100.00;101255.09;5095109;28;20470;-55
2023/04/21 06:18:32;;;;;;;167.80;90.35;;;;;;;6.23;100.00;101252.69;5094043;28;20102;-54
2023/04/21 06:20:57;;;;;;;167.25;90.18;;;;;;;6.29;100.00;101257.25;5094653;28;20036;-56
2023/04/21 06:23:22;;;;;;;166.48;90.20;;;;;;;6.31;100.00;101259.09;5094056;28;20020;-55
2023/04/21 06:25:59;;;;;;;164.80;91.22;;;;;;;6.35;100.00;101257.56;5095018;28;20080;-56
2023/04/21 06:28:24;;;;;;;165.77;90.65;;;;;;;6.39;100.00;101259.50;5094319;28;20048;-55
2023/04/21 06:30:50;;;;;;;170.25;89.60;;;;;;;6.43;100.00;101253.75;5094914;28;20454;-56
2023/04/21 06:33:15;;;;;;;176.55;92.00;;;;;;;6.47;100.00;101258.25;5094327;28;20053;-55
2023/04/21 06:35:40;;;;;;;164.55;87.88;;;;;;;6.56;100.00;101268.97;5094566;28;20032;-54
2023/04/21 06:38:08;;;;;;;159.38;88.63;;;;;;;6.62;100.00;101267.53;5094959;28;20024;-54
2023/04/21 06:40:33;;;;;;;165.32;92.05;;;;;;;6.72;100.00;101267.19;5094006;28;20024;-54
2023/04/21 06:42:58;;;;;;;167.05;92.38;;;;;;;6.83;100.00;101267.75;5094668;28;20039;-55
2023/04/21 06:45:24;;;;;;;161.50;89.22;;;;;;;6.87;100.00;101264.56;5094715;28;20036;-53
2023/04/21 06:47:49;;;;;;;155.60;86.78;;;;;;;6.98;100.00;101262.53;5094624;28;20039;-54
2023/04/21 06:50:15;;;;;;;163.10;89.63;;;;;;;7.10;100.00;101263.13;5094567;28;20445;-54
2023/04/21 06:52:40;;;;;;;161.48;90.53;;;;;;;7.21;100.00;101264.56;5094749;28;20027;-55
2023/04/21 06:55:06;;;;;;;141.88;82.95;;;;;;;7.16;100.00;101263.44;5094044;28;20031;-54
2023/04/21 06:57:31;;;;;;;127.28;77.65;;;;;;;7.16;100.00;101268.59;5092978;28;20101;-54
2023/04/21 06:59:57;;;;;;;126.13;77.53;;;;;;;7.23;100.00;101265.53;5094199;28;20020;-55
2023/04/21 07:02:22;;;;;;;141.88;86.95;;;;;;;7.45;100.00;101260.56;5093594;28;20068;-54
2023/04/21 07:04:47;;;;;;;140.77;84.68;;;;;;;7.48;100.00;101263.31;5094282;28;20426;-54
2023/04/21 07:07:13;;;;;;;127.75;81.40;;;;;;;7.51;100.00;101266.88;5094494;28;20369;-53
2023/04/21 07:09:38;;;;;;;120.38;75.80;;;;;;;7.54;100.00;101256.78;5093539;28;20016;-54
2023/04/21 07:12:03;;;;;;;114.60;73.50;;;;;;;7.58;100.00;101257.81;5093934;28;20020;-55
2023/04/21 07:14:29;;;;;;;97.57;68.93;;;;;;;7.60;100.00;101260.44;5094102;28;20388;-54
2023/04/21 07:16:56;;;;;;;109.53;71.72;;;;;;;7.64;100.00;101262.34;5093732;28;20020;-54
2023/04/21 07:19:21;;;;;;;106.43;69.78;;;;;;;7.69;100.00;101264.31;5093864;28;20119;-55
2023/04/21 07:21:46;;;;;;;98.95;66.20;;;;;;;7.73;100.00;101270.50;5094229;28;20446;-55
2023/04/21 07:24:12;;;;;;;102.32;67.65;;;;;;;7.83;100.00;101270.13;5093340;28;20035;-54
2023/04/21 07:26:37;;;;;;;90.35;62.92;;;;;;;7.91;100.00;101266.25;5093671;28;20039;-54
2023/04/21 07:29:02;;;;;;;94.03;66.47;;;;;;;8.04;100.00;101269.38;5093857;28;20028;-54
2023/04/21 07:31:28;;;;;;;97.53;68.00;;;;;;;8.11;100.00;101271.44;5093125;28;20024;-55
2023/04/21 07:33:53;;;;;;;87.35;62.03;;;;;;;8.15;100.00;101260.50;5094153;28;20365;-54
2023/04/21 07:36:18;;;;;;;93.35;65.25;;;;;;;8.35;100.00;101260.50;5093127;28;20028;-53
2023/04/21 07:38:43;;;;;;;83.70;59.50;;;;;;;8.37;100.00;101258.91;5093530;28;20016;-54
2023/04/21 07:41:12;;;;;;;77.22;56.92;;;;;;;8.44;100.00;101260.91;5093753;28;20486;-54
2023/04/21 07:43:38;;;;;;;76.20;58.00;;;;;;;8.44;100.00;101255.78;5092789;28;20517;-55
2023/04/21 07:46:04;;;;;;;74.82;55.53;;;;;;;8.49;100.00;101256.91;5093380;28;20035;-54
2023/04/21 07:48:30;;;;;;;75.22;56.88;;;;;;;8.62;100.00;101260.91;5093456;28;20032;-54
2023/04/21 07:50:57;;;;;;;71.90;52.90;;;;;;;8.78;100.00;101252.19;5091985;28;20098;-54
2023/04/21 07:53:22;;;;;;;60.95;46.70;;;;;;;8.83;100.00;101260.06;5092585;28;20094;-54
2023/04/21 07:55:47;;;;;;;61.17;47.83;;;;;;;8.86;100.00;101255.09;5093486;28;20095;-54
2023/04/21 07:58:13;;;;;;;60.33;47.03;;;;;;;9.02;100.00;101246.31;5092846;28;20115;-54
2023/04/21 08:00:38;;;;;;;60.08;47.28;;;;;;;9.13;100.00;101257.94;5093058;28;20024;-54
2023/04/21 08:03:03;;;;;;;56.30;43.80;;;;;;;9.21;100.00;101256.56;5093266;28;20071;-53
2023/04/21 08:05:29;;;;;;;60.17;46.28;;;;;;;9.29;100.00;101261.16;5092508;28;20536;-54
2023/04/21 08:07:56;;;;;;;58.33;46.30;;;;;;;9.33;100.00;101257.91;5093076;28;20054;-54
2023/04/21 08:10:21;;;;;;;54.78;45.25;;;;;;;9.49;100.00;101254.25;5092883;28;20111;-54
2023/04/21 08:12:46;;;;;;;59.17;46.20;;;;;;;9.63;100.00;101252.22;5092886;28;20021;-54
2023/04/21 08:15:12;;;;;;;54.95;42.85;;;;;;;9.79;100.00;101253.72;5092933;28;20032;-54
2023/04/21 08:17:37;;;;;;;50.35;40.05;;;;;;;9.86;100.00;101251.47;5093087;28;20033;-55
2023/04/21 08:20:03;;;;;;;46.20;37.55;;;;;;;9.95;100.00;101250.06;5092683;28;20111;-54
2023/04/21 08:22:28;;;;;;;47.30;38.25;;;;;;;10.04;100.00;101245.25;5092643;28;20024;-55
2023/04/21 08:24:54;;;;;;;42.50;33.80;;;;;;;10.14;100.00;101246.47;5092975;28;20039;-54
2023/04/21 08:27:19;;;;;;;42.70;34.38;;;;;;;10.14;100.00;101257.66;5092282;28;20107;-54
2023/04/21 08:29:44;;;;;;;43.47;34.00;;;;;;;10.03;100.00;101248.63;5093149;28;20024;-54
2023/04/21 08:32:10;;;;;;;43.85;35.90;;;;;;;10.22;100.00;101247.63;5093030;28;20463;-54
2023/04/21 08:34:35;;;;;;;43.90;35.72;;;;;;;10.33;100.00;101242.91;5091816;28;20102;-54
2023/04/21 08:37:00;;;;;;;42.15;34.22;;;;;;;10.46;100.00;101239.13;5092971;28;20467;-54
2023/04/21 08:39:25;;;;;;;42.92;34.17;;;;;;;10.75;100.00;101236.69;5092303;28;20024;-54
2023/04/21 08:41:51;;;;;;;38.65;32.42;;;;;;;10.96;100.00;101242.59;5091611;28;20597;-53
2023/04/21 08:44:18;;;;;;;40.55;32.17;;;;;;;11.00;100.00;101246.13;5092744;28;20020;-54
2023/04/21 08:46:45;;;;;;;36.65;29.90;;;;;;;11.12;100.00;101240.53;5092307;28;20028;-55
2023/04/21 08:49:11;;;;;;;41.15;31.88;;;;;;;11.31;100.00;101248.06;5092702;28;20032;-55
2023/04/21 08:51:37;;;;;;;35.97;30.25;;;;;;;11.19;99.58;101247.63;5092553;28;20016;-54
2023/04/21 08:54:02;;;;;;;36.35;30.00;;;;;;;11.13;96.62;101255.16;5092101;28;20372;-55
2023/04/21 08:56:27;;;;;;;39.42;31.13;;;;;;;11.27;99.51;101247.88;5092439;28;20456;-53
2023/04/21 08:58:53;;;;;;;38.13;30.90;;;;;;;11.33;99.56;101242.94;5092841;28;20030;-53
2023/04/21 09:01:18;;;;;;;37.13;29.70;;;;;;;11.30;97.85;101243.72;5091834;28;20422;-54
2023/04/21 09:03:43;;;;;;;35.92;29.25;;;;;;;11.26;93.94;101243.56;5092444;28;20179;-53
2023/04/21 09:06:09;;;;;;;36.42;29.88;;;;;;;11.31;95.95;101235.16;5092658;28;20036;-53
2023/04/21 09:08:41;;;;;;;39.30;31.67;;;;;;;11.69;99.98;101237.19;5092211;28;20348;-53
2023/04/21 09:11:07;;;;;;;40.10;32.95;;;;;;;11.68;97.29;101225.13;5092687;28;20027;-53
2023/04/21 09:13:35;;;;;;;38.13;31.55;;;;;;;12.09;98.71;101233.28;5092572;28;20028;-53
2023/04/21 09:16:02;;;;;;;38.13;31.15;;;;;;;12.32;95.17;101233.94;5092004;28;20452;-53
2023/04/21 09:18:35;;;;;;;38.47;29.27;;;;;;;12.73;98.32;101228.19;5092084;28;20024;-53
2023/04/21 09:21:19;;;;;;;36.05;29.05;;;;;;;12.83;92.54;101240.53;5092475;28;20446;-53
2023/04/21 09:23:46;;;;;;;36.45;28.88;;;;;;;12.82;88.65;101233.59;5091873;28;20025;-54
2023/04/21 09:26:12;;;;;;;30.35;26.50;;;;;;;13.01;87.69;101228.88;5092615;28;20032;-53
2023/04/21 09:28:46;;;;;;;30.17;25.05;;;;;;;13.06;87.43;101229.03;5092267;28;20050;-53
2023/04/21 09:31:27;;;;;;;32.03;26.80;;;;;;;13.11;86.23;101230.00;5092304;28;20028;-52
2023/04/21 09:33:55;;;;;;;32.15;26.60;;;;;;;13.14;86.54;101225.81;5092611;28;20047;-53
2023/04/21 09:36:26;;;;;;;;;;;;;;;13.47;91.14;101227.47;5092035;28;20016;-53
2023/04/21 09:39:02;;;;;;;27.42;23.00;;;;;;;13.91;84.39;101224.16;5092326;28;19956;-52
2023/04/21 09:41:30;;;;;;;30.75;24.95;;;;;;;13.98;81.21;101220.88;5092360;28;20032;-53
2023/04/21 09:44:00;;;;;;;29.15;24.05;;;;;;;13.94;80.40;101226.81;5091738;28;20150;-53
2023/04/21 09:46:27;;;;;;;29.92;24.10;;;;;;;13.89;82.05;101222.38;5091884;28;20036;-54
2023/04/21 09:48:54;;;;;;;27.65;23.10;;;;;;;14.37;81.89;101226.84;5092420;28;20024;-52
2023/04/21 09:51:23;;;;;;;28.80;24.05;;;;;;;14.79;81.46;101228.53;5092407;28;20027;-53
2023/04/21 09:53:52;;;;;;;26.00;23.17;;;;;;;15.22;78.74;101219.75;5095701;28;20032;-54
2023/04/21 09:56:23;;;;;;;25.25;22.45;;;;;;;15.18;75.37;101223.13;5095641;28;20020;-53
2023/04/21 09:58:52;;;;;;;24.48;21.50;;;;;;;15.31;74.86;101217.28;5094985;28;20068;-53
2023/04/21 10:01:18;;;;;;;25.48;22.77;;;;;;;14.66;73.48;101216.19;5095694;28;20043;-54
2023/04/21 10:03:46;;;;;;;25.05;21.98;;;;;;;14.31;73.65;101218.94;5095594;28;20044;-53
2023/04/21 10:06:11;;;;;;;23.95;21.35;;;;;;;14.62;77.37;101215.22;5094847;28;20105;-53
2023/04/21 10:08:37;;;;;;;22.65;19.48;;;;;;;14.12;74.02;101218.53;5095328;28;20464;-54
2023/04/21 10:11:04;;;;;;;20.88;18.25;;;;;;;14.03;76.11;101210.56;5094921;28;20532;-53
2023/04/21 10:13:30;;;;;;;27.58;19.45;;;;;;;15.26;74.76;101200.75;5094900;28;20051;-52
2023/04/21 10:16:09;;;;;;;20.38;17.95;;;;;;;16.19;71.11;101213.38;5095657;28;20046;-53
2023/04/21 10:18:44;;;;;;;21.05;17.40;;;;;;;16.51;70.02;101198.97;5094619;28;20112;-53
2023/04/21 10:21:23;;;;;;;20.63;17.77;;;;;;;16.39;67.72;101195.38;5095122;28;20063;-51
2023/04/21 10:23:50;;;;;;;20.95;17.77;;;;;;;17.38;67.98;101201.53;5095330;28;20057;-53
2023/04/21 10:26:23;;;;;;;;;;;;;;;18.22;73.62;101202.03;5094927;28;20028;-50
2023/04/21 10:29:03;;;;;;;18.67;15.13;;;;;;;18.81;61.25;101191.69;5095166;28;20028;-53
2023/04/21 10:31:50;;;;;;;21.52;15.90;;;;;;;17.65;59.00;101189.56;5094882;28;20068;-54
2023/04/21 10:34:21;;;;;;;18.90;16.35;;;;;;;17.30;61.57;101181.50;5093938;28;20115;-55
2023/04/21 10:36:52;;;;;;;21.02;17.73;;;;;;;16.61;61.18;101178.28;5095048;28;20074;-54
2023/04/21 10:39:51;;;;;;;21.35;17.50;;;;;;;16.55;66.67;101175.63;5094199;28;20119;-54
2023/04/21 10:42:19;;;;;;;20.55;17.77;;;;;;;16.04;65.17;101169.00;5078905;28;20044;-53
2023/04/21 10:44:57;;;;;;;21.13;17.25;;;;;;;17.19;65.64;101160.59;5095105;28;20394;-53
2023/04/21 10:47:35;;;;;;;19.92;16.23;;;;;;;17.78;61.34;101160.06;5094018;28;20028;-52
2023/04/21 10:50:11;;;;;;;17.17;13.95;;;;;;;18.12;57.86;101156.75;5094932;28;20035;-53
2023/04/21 10:52:36;;;;;;;18.77;15.57;;;;;;;17.24;55.53;101162.34;5094450;28;20115;-54
2023/04/21 10:55:02;;;;;;;17.33;15.38;;;;;;;16.97;59.67;101156.94;5093869;28;20173;-53
2023/04/21 10:57:31;;;;;;;15.68;13.95;;;;;;;17.09;60.39;101151.81;5094554;28;20032;-53
2023/04/21 10:59:56;;;;;;;18.02;15.60;;;;;;;16.37;59.88;101150.28;5094527;28;20024;-53
2023/04/21 11:02:22;;;;;;;18.92;14.82;;;;;;;16.31;59.60;101145.03;5093291;28;20051;-53
2023/04/21 11:04:52;;;;;;;16.25;14.48;;;;;;;16.05;59.49;101140.41;5093801;28;20101;-53